Time;durP1;ratioP1;P1;durP2;ratioP2;P2;SDS_P1;SDS_P2;PMS_P1;PMS_P2;Temp;Humidity;BMP_temperature;BMP_pressure;BME280_temperature;BME280_humidity;BME280_pressure;Samples;Min_cycle;Max_cycle;Signal;HPM_P1;HPM_P2
2023/12/14 00:01:21;;;;;;;1.25;0.70;;;5.80;99.90;;;4.97;100.00;96175.16;4985046;28;20034;-39
2023/12/14 00:03:48;;;;;;;1.80;0.70;;;5.80;99.90;;;5.06;100.00;96189.69;4981186;28;20030;-39
2023/12/14 00:06:14;;;;;;;2.50;0.98;;;5.80;99.90;;;5.05;100.00;96184.50;4984458;28;20038;-40
2023/12/14 00:08:40;;;;;;;1.05;0.57;;;5.80;99.90;;;5.08;100.00;96193.09;4981665;28;20533;-39
2023/12/14 00:11:11;;;;;;;1.55;0.70;;;5.80;99.90;;;5.02;100.00;96187.22;4983892;28;20034;-40
2023/12/14 00:13:37;;;;;;;3.13;0.80;;;5.80;99.90;;;4.99;100.00;96190.78;4977128;28;20039;-40
2023/12/14 00:16:03;;;;;;;0.77;0.70;;;5.80;99.90;;;5.09;100.00;96204.38;4978807;28;20038;-40
2023/12/14 00:18:28;;;;;;;1.48;0.70;;;5.80;99.90;;;4.89;100.00;96165.88;4981218;28;20034;-38
2023/12/14 00:20:55;;;;;;;1.50;0.57;;;5.80;99.90;;;5.04;100.00;96196.69;4968852;28;20036;-38
2023/12/14 00:23:21;;;;;;;1.65;0.75;;;5.80;99.90;;;5.13;100.00;96214.69;4981562;28;20038;-38
2023/12/14 00:25:47;;;;;;;1.75;0.80;;;5.80;99.90;;;5.13;100.00;96212.06;4978891;28;20125;-38
2023/12/14 00:28:13;;;;;;;1.13;0.80;;;5.80;99.90;;;5.10;100.00;96209.56;4978327;28;20903;-40
2023/12/14 00:30:39;;;;;;;1.23;0.82;;;5.90;99.90;;;5.16;100.00;96218.94;4979196;28;20057;-38
2023/12/14 00:33:04;;;;;;;1.13;0.82;;;5.90;99.90;;;5.08;100.00;96203.53;4982673;28;20615;-38
2023/12/14 00:35:30;;;;;;;1.27;0.73;;;5.90;99.90;;;5.11;100.00;96213.88;4980256;28;20496;-38
2023/12/14 00:37:56;;;;;;;0.93;0.73;;;5.90;99.90;;;5.13;100.00;96217.31;4982445;28;20495;-40
2023/12/14 00:40:22;;;;;;;0.60;0.50;;;5.90;99.90;;;5.15;100.00;96228.56;4982450;28;20459;-38
2023/12/14 00:42:47;;;;;;;1.95;0.73;;;5.90;99.90;;;5.15;100.00;96218.09;4977504;28;20487;-37
2023/12/14 00:45:13;;;;;;;1.45;0.68;;;5.90;99.90;;;5.04;100.00;96208.91;4981876;28;20038;-38
2023/12/14 00:47:39;;;;;;;0.70;0.50;;;5.90;99.90;;;5.10;100.00;96222.63;4977301;28;21417;-38
2023/12/14 00:50:05;;;;;;;0.90;0.68;;;5.90;99.90;;;5.06;100.00;96213.19;4972481;28;20034;-42
2023/12/14 00:52:31;;;;;;;2.13;0.70;;;5.90;99.90;;;5.15;100.00;96235.53;4979770;28;20092;-41
2023/12/14 00:54:56;;;;;;;1.83;0.90;;;5.90;99.90;;;5.06;100.00;96230.59;4981803;28;20030;-38
2023/12/14 00:57:22;;;;;;;1.73;0.90;;;5.90;99.90;;;5.14;100.00;96245.13;4983083;28;20125;-39
2023/12/14 00:59:48;;;;;;;1.85;0.85;;;5.80;99.90;;;5.11;100.00;96250.44;4978420;28;20061;-40
2023/12/14 01:02:14;;;;;;;1.00;0.65;;;5.80;99.90;;;5.11;100.00;96254.84;4979967;28;20050;-41
2023/12/14 01:04:39;;;;;;;1.55;0.80;;;5.80;99.90;;;5.10;100.00;96259.22;4981867;28;20057;-40
2023/12/14 01:07:05;;;;;;;2.35;0.90;;;5.80;99.90;;;5.09;100.00;96252.25;4978815;28;20043;-38
2023/12/14 01:09:31;;;;;;;1.05;0.73;;;5.80;99.90;;;5.07;100.00;96248.00;4979041;28;20058;-38
2023/12/14 01:11:56;;;;;;;2.20;1.05;;;5.80;99.90;;;5.03;100.00;96255.09;4967780;28;20088;-38
2023/12/14 01:14:22;;;;;;;2.22;0.98;;;5.80;99.90;;;5.09;100.00;96265.34;4980780;28;20030;-39
2023/12/14 01:16:48;;;;;;;1.30;0.93;;;5.80;99.90;;;5.11;100.00;96273.13;4981920;28;20119;-40
2023/12/14 01:19:14;;;;;;;1.75;0.80;;;5.80;99.90;;;5.12;100.00;96269.63;4980076;28;20026;-39
2023/12/14 01:21:39;;;;;;;2.88;0.90;;;5.80;99.90;;;5.05;100.00;96266.34;4976658;28;20988;-38
2023/12/14 01:24:05;;;;;;;1.52;0.65;;;5.80;99.90;;;5.09;100.00;96282.78;4983543;28;20026;-39
2023/12/14 01:26:31;;;;;;;0.93;0.85;;;5.80;99.90;;;5.06;100.00;96283.75;4982287;28;20491;-39
2023/12/14 01:28:58;;;;;;;0.90;0.73;;;5.80;99.90;;;5.06;100.00;96288.97;4984380;28;21131;-39
2023/12/14 01:31:25;;;;;;;2.33;0.88;;;5.80;99.90;;;5.04;100.00;96298.59;4975414;28;20442;-38
2023/12/14 01:33:51;;;;;;;1.48;0.80;;;5.80;99.90;;;5.01;100.00;96296.09;4982556;28;20062;-38
2023/12/14 01:36:24;;;;;;;1.67;1.05;;;5.80;99.90;;;5.01;100.00;96301.34;4977281;28;20557;-39
2023/12/14 01:38:50;;;;;;;1.00;0.63;;;5.80;99.90;;;5.07;100.00;96308.13;4978977;28;20563;-39
2023/12/14 01:41:16;;;;;;;0.88;0.80;;;5.80;99.90;;;5.05;100.00;96317.75;4976135;28;20058;-39
2023/12/14 01:43:41;;;;;;;1.65;0.80;;;5.80;99.90;;;5.02;100.00;96317.84;4980612;28;20146;-39
2023/12/14 01:46:07;;;;;;;0.75;0.70;;;5.80;99.90;;;4.94;100.00;96313.72;4980513;28;20419;-39
2023/12/14 01:48:33;;;;;;;1.10;0.80;;;5.70;99.90;;;4.98;100.00;96330.16;4979016;28;20581;-39
2023/12/14 01:50:58;;;;;;;1.80;1.00;;;5.80;99.90;;;4.94;100.00;96329.41;4980346;28;20784;-39
2023/12/14 01:53:24;;;;;;;1.45;0.95;;;5.70;99.90;;;4.90;100.00;96329.53;4981620;28;20053;-40
2023/12/14 01:55:50;;;;;;;1.50;0.70;;;5.60;99.90;;;4.76;100.00;96315.16;4982912;28;20045;-40
2023/12/14 01:58:15;;;;;;;2.13;0.75;;;5.60;99.90;;;4.80;100.00;96338.59;4984879;28;20567;-41
2023/12/14 02:00:55;;;;;;;1.38;0.95;;;5.50;99.90;;;4.71;100.00;96334.50;4973652;28;20038;-39
2023/12/14 02:03:20;;;;;;;1.27;0.70;;;5.50;99.90;;;4.69;100.00;96337.16;4978453;28;20046;-38
2023/12/14 02:05:46;;;;;;;1.60;0.90;;;5.40;99.90;;;4.63;100.00;96339.97;4986346;28;20108;-38
2023/12/14 02:08:12;;;;;;;1.63;0.90;;;5.40;99.90;;;4.63;100.00;96349.53;4979626;28;20034;-38
2023/12/14 02:10:37;;;;;;;6.65;1.00;;;5.40;99.90;;;4.53;100.00;96336.75;4979680;28;20523;-38
2023/12/14 02:13:03;;;;;;;2.17;0.80;;;5.40;99.90;;;4.61;100.00;96338.28;4982235;28;20056;-39
2023/12/14 02:15:29;;;;;;;0.85;0.75;;;5.40;99.90;;;4.61;100.00;96348.72;4981163;28;20453;-40
2023/12/14 02:17:55;;;;;;;1.23;0.65;;;5.40;99.90;;;4.62;100.00;96355.69;4983437;28;20116;-39
2023/12/14 02:20:21;;;;;;;0.80;0.70;;;5.40;99.90;;;4.54;100.00;96345.44;4986354;28;20038;-37
2023/12/14 02:22:55;;;;;;;1.58;0.75;;;5.40;99.90;;;4.64;100.00;96361.69;4980070;28;20053;-37
2023/12/14 02:25:23;;;;;;;0.90;0.73;;;5.40;99.90;;;4.68;100.00;96366.78;4993023;28;20045;-38
2023/12/14 02:27:50;;;;;;;1.67;0.75;;;5.40;99.90;;;4.70;100.00;96370.22;4980081;28;20111;-40
2023/12/14 02:30:16;;;;;;;1.40;0.60;;;5.40;99.90;;;4.70;100.00;96362.38;4996489;28;20585;-39
2023/12/14 02:32:42;;;;;;;0.93;0.60;;;5.40;99.90;;;4.71;100.00;96366.69;4981451;28;20041;-38
2023/12/14 02:35:08;;;;;;;1.83;0.73;;;5.50;99.90;;;4.73;100.00;96369.25;4986436;28;20379;-37
2023/12/14 02:37:37;;;;;;;0.43;0.43;;;5.50;99.90;;;4.72;100.00;96367.53;4979521;28;20524;-38
2023/12/14 02:40:04;;;;;;;0.93;0.70;;;5.50;99.90;;;4.75;100.00;96376.13;4984695;28;20037;-37
2023/12/14 02:42:30;;;;;;;0.95;0.70;;;5.50;99.90;;;4.71;100.00;96369.28;4984068;28;20068;-37
2023/12/14 02:44:56;;;;;;;1.60;0.80;;;5.50;99.90;;;4.73;100.00;96374.47;4979096;28;20037;-37
2023/12/14 02:47:23;;;;;;;4.10;0.90;;;5.50;99.90;;;4.76;100.00;96380.47;4978474;28;20042;-38
2023/12/14 02:49:48;;;;;;;1.00;0.68;;;5.60;99.90;;;4.78;100.00;96378.66;4978298;28;20023;-38
2023/12/14 02:52:14;;;;;;;1.10;0.68;;;5.50;99.90;;;4.83;100.00;96380.25;4964976;28;20038;-38
2023/12/14 02:54:40;;;;;;;4.28;0.90;;;5.60;99.90;;;4.80;100.00;96381.22;4982167;28;20114;-38
2023/12/14 02:57:06;;;;;;;0.80;0.73;;;5.50;99.90;;;4.83;100.00;96385.50;4979572;28;20109;-37
2023/12/14 02:59:32;;;;;;;2.20;0.73;;;5.60;99.90;;;4.83;100.00;96388.97;4977288;28;20049;-39
2023/12/14 03:01:58;;;;;;;1.20;0.82;;;5.60;99.90;;;4.85;100.00;96395.00;4976015;28;20650;-38
2023/12/14 03:04:24;;;;;;;0.70;0.60;;;5.60;99.90;;;4.86;100.00;96394.09;4960222;28;20144;-38
2023/12/14 03:06:50;;;;;;;1.25;0.90;;;5.60;99.90;;;4.84;100.00;96385.44;4968257;28;20491;-41
2023/12/14 03:09:15;;;;;;;1.00;0.70;;;5.60;99.90;;;4.82;100.00;96391.63;4973537;28;20113;-39
2023/12/14 03:11:41;;;;;;;1.60;0.93;;;5.60;99.90;;;4.80;100.00;96385.59;4976643;28;20022;-39
2023/12/14 03:14:07;;;;;;;1.27;0.80;;;5.60;99.90;;;4.88;100.00;96402.75;4969723;28;20030;-40
2023/12/14 03:16:35;;;;;;;0.80;0.60;;;5.60;99.90;;;4.88;100.00;96409.72;4979977;28;20042;-38
2023/12/14 03:19:01;;;;;;;0.70;0.70;;;5.70;99.90;;;4.90;100.00;96411.41;4978610;28;20364;-40
2023/12/14 03:21:26;;;;;;;1.08;0.70;;;5.70;99.90;;;4.84;100.00;96403.72;4980460;28;20041;-39
2023/12/14 03:23:52;;;;;;;1.05;0.70;;;5.70;99.90;;;4.89;100.00;96420.13;4974198;28;20034;-40
2023/12/14 03:26:18;;;;;;;2.08;0.70;;;5.60;99.90;;;4.89;100.00;96422.75;4980439;28;20040;-39
2023/12/14 03:28:44;;;;;;;1.10;0.82;;;5.70;99.90;;;4.89;100.00;96427.13;4981514;28;20026;-39
2023/12/14 03:31:11;;;;;;;1.52;0.57;;;5.70;99.90;;;4.83;100.00;96414.22;4981154;28;20347;-39
2023/12/14 03:33:37;;;;;;;0.70;0.68;;;5.70;99.90;;;4.92;100.00;96437.50;4984759;28;20510;-39
2023/12/14 03:36:03;;;;;;;0.98;0.77;;;5.70;99.90;;;4.91;100.00;96435.75;4987003;28;20041;-40
2023/12/14 03:38:29;;;;;;;0.65;0.50;;;5.70;99.90;;;4.93;100.00;96452.25;4979532;28;20341;-39
2023/12/14 03:40:55;;;;;;;1.08;0.60;;;5.70;99.90;;;4.95;100.00;96455.66;4980875;28;20044;-40
2023/12/14 03:43:22;;;;;;;2.53;0.70;;;5.70;99.90;;;4.92;100.00;96453.16;4984921;28;20105;-40
2023/12/14 03:45:47;;;;;;;1.13;0.57;;;5.70;99.90;;;4.93;100.00;96452.25;4978130;28;20175;-39
2023/12/14 03:48:13;;;;;;;1.02;0.60;;;5.70;99.90;;;4.93;100.00;96457.47;4984989;28;20034;-39
2023/12/14 03:50:39;;;;;;;0.85;0.60;;;5.70;99.90;;;4.98;100.00;96466.88;4981360;28;23543;-39
2023/12/14 03:53:04;;;;;;;1.10;0.68;;;5.70;99.90;;;4.95;100.00;96466.13;4983741;28;20037;-39
2023/12/14 03:55:30;;;;;;;0.88;0.60;;;5.70;99.90;;;5.03;100.00;96477.22;4982706;28;20030;-39
2023/12/14 03:57:56;;;;;;;1.35;0.70;;;5.70;99.90;;;5.01;100.00;96468.56;4971231;28;20037;-42
2023/12/14 04:00:22;;;;;;;0.77;0.60;;;5.80;99.90;;;5.07;100.00;96481.44;4978969;28;20042;-40
2023/12/14 04:02:47;;;;;;;0.77;0.57;;;5.80;99.90;;;5.06;100.00;96473.63;4984457;28;20042;-39
2023/12/14 04:05:13;;;;;;;1.02;0.52;;;5.80;99.90;;;5.08;100.00;96484.91;4982520;28;20034;-39
2023/12/14 04:07:40;;;;;;;1.08;0.50;;;5.80;99.90;;;5.10;100.00;96491.81;4986761;28;20034;-39
2023/12/14 04:10:10;;;;;;;1.25;0.60;;;5.80;99.90;;;5.00;100.00;96479.91;4976698;28;20308;-39
2023/12/14 04:12:37;;;;;;;0.77;0.63;;;5.80;99.90;;;5.10;100.00;96501.41;4973707;28;21328;-40
2023/12/14 04:15:05;;;;;;;0.77;0.52;;;5.80;99.90;;;5.09;100.00;96508.38;4981372;28;20648;-39
2023/12/14 04:17:31;;;;;;;1.70;0.80;;;5.80;99.90;;;5.08;100.00;96511.91;4982193;28;20034;-39
2023/12/14 04:19:57;;;;;;;1.45;0.70;;;5.80;99.90;;;5.09;100.00;96510.16;4981559;28;20038;-39
2023/12/14 04:22:23;;;;;;;1.45;0.70;;;5.80;99.90;;;5.10;100.00;96517.94;4983798;28;20026;-39
2023/12/14 04:24:48;;;;;;;0.82;0.55;;;5.80;99.90;;;5.11;100.00;96519.63;4983462;28;20042;-40
2023/12/14 04:27:15;;;;;;;0.73;0.50;;;5.80;99.90;;;5.06;100.00;96518.06;4979725;28;20137;-39
2023/12/14 04:29:41;;;;;;;1.48;0.60;;;5.80;99.90;;;5.05;100.00;96517.22;4979405;28;20041;-40
2023/12/14 04:32:07;;;;;;;0.95;0.60;;;5.80;99.90;;;5.08;100.00;96530.19;4974039;28;20736;-40
2023/12/14 04:34:33;;;;;;;0.45;0.38;;;5.80;99.90;;;5.07;100.00;96528.47;4979175;28;20034;-39
2023/12/14 04:36:58;;;;;;;1.30;0.60;;;5.80;99.90;;;5.02;100.00;96521.66;4982915;28;20053;-40
2023/12/14 04:39:25;;;;;;;0.80;0.60;;;5.80;99.90;;;5.06;100.00;96531.13;4982699;28;20030;-39
2023/12/14 04:41:52;;;;;;;1.48;0.70;;;5.80;99.90;;;5.08;100.00;96540.66;4982308;28;20046;-39
2023/12/14 04:44:18;;;;;;;1.50;0.70;;;5.80;99.90;;;5.05;100.00;96532.91;4981230;28;20109;-39
2023/12/14 04:46:44;;;;;;;1.65;0.90;;;5.80;99.90;;;5.04;100.00;96538.16;4982984;28;20228;-40
2023/12/14 04:49:10;;;;;;;2.90;0.90;;;5.80;99.90;;;5.07;100.00;96544.16;4980714;28;20540;-40
2023/12/14 04:51:36;;;;;;;3.10;0.85;;;5.80;99.90;;;5.07;100.00;96546.78;4972444;28;20113;-39
2023/12/14 04:54:03;;;;;;;1.73;1.02;;;5.80;99.90;;;5.09;100.00;96552.81;4981142;28;20030;-40
2023/12/14 04:56:29;;;;;;;2.05;0.93;;;5.80;99.90;;;5.09;100.00;96555.41;4982229;28;20034;-41
2023/12/14 04:58:54;;;;;;;1.45;1.05;;;5.80;99.90;;;5.05;100.00;96543.34;4981316;28;20033;-40
2023/12/14 05:01:20;;;;;;;5.57;1.17;;;5.80;99.90;;;5.13;100.00;96559.69;4975748;28;20100;-42
2023/12/14 05:03:46;;;;;;;2.00;1.23;;;5.90;99.90;;;5.15;100.00;96564.84;4973846;28;20038;-40
2023/12/14 05:06:11;;;;;;;1.45;1.00;;;5.90;99.90;;;5.20;100.00;96577.78;4970299;28;20478;-42
2023/12/14 05:08:37;;;;;;;3.00;0.90;;;5.90;99.90;;;5.23;100.00;96569.88;4972090;28;20044;-40
2023/12/14 05:11:03;;;;;;;1.00;0.90;;;5.90;99.90;;;5.25;100.00;96575.91;4971569;28;20033;-40
2023/12/14 05:13:30;;;;;;;1.58;0.90;;;6.00;99.90;;;5.27;100.00;96574.94;4980189;28;20148;-40
2023/12/14 05:15:57;;;;;;;1.45;1.00;;;6.00;99.90;;;5.21;100.00;96577.75;4978755;28;20030;-41
2023/12/14 05:18:23;;;;;;;2.70;1.30;;;6.00;99.90;;;5.27;100.00;96584.56;4979848;28;20121;-41
2023/12/14 05:20:50;;;;;;;2.35;1.13;;;6.00;99.90;;;5.29;100.00;96593.19;4979194;28;20332;-41
2023/12/14 05:23:16;;;;;;;1.83;1.20;;;6.00;99.90;;;5.28;100.00;96592.34;4979768;28;20088;-39
2023/12/14 05:25:41;;;;;;;2.42;1.30;;;6.10;99.90;;;5.27;100.00;96590.63;4979989;28;20050;-40
2023/12/14 05:28:07;;;;;;;2.15;1.10;;;6.10;99.90;;;5.33;100.00;96600.94;4977466;28;20037;-39
2023/12/14 05:30:33;;;;;;;1.88;1.30;;;6.10;99.90;;;5.32;100.00;96619.25;4977765;28;20037;-40
2023/12/14 05:32:58;;;;;;;2.10;1.30;;;6.10;99.90;;;5.31;100.00;96615.81;4979555;28;20061;-41
2023/12/14 05:35:24;;;;;;;1.85;1.20;;;6.10;99.90;;;5.32;100.00;96624.50;4983728;28;20056;-40
2023/12/14 05:37:50;;;;;;;1.50;1.10;;;6.10;99.90;;;5.30;100.00;96623.69;4976477;28;20128;-39
2023/12/14 05:40:16;;;;;;;1.85;1.30;;;6.10;99.90;;;5.34;100.00;96641.00;4980625;28;20037;-40
2023/12/14 05:42:42;;;;;;;3.25;1.60;;;6.10;99.90;;;5.32;100.00;96633.19;4982629;28;20081;-40
2023/12/14 05:45:08;;;;;;;3.50;1.52;;;6.10;99.90;;;5.23;100.00;96628.22;4979430;28;20034;-40
2023/12/14 05:47:34;;;;;;;3.15;1.88;;;6.10;99.90;;;5.24;100.00;96642.13;4983633;28;20037;-40
2023/12/14 05:50:04;;;;;;;3.00;1.70;;;6.10;99.90;;;5.31;100.00;96654.13;4982110;28;20018;-41
2023/12/14 05:52:30;;;;;;;1.88;1.63;;;6.10;99.90;;;5.30;100.00;96660.28;4981686;28;20077;-39
2023/12/14 05:54:56;;;;;;;2.40;1.52;;;6.10;99.90;;;5.29;100.00;96663.78;4979668;28;20037;-43
2023/12/14 05:57:22;;;;;;;2.97;1.63;;;6.10;99.90;;;5.25;100.00;96654.31;4979100;28;20414;-41
2023/12/14 05:59:50;;;;;;;2.00;1.50;;;6.10;99.90;;;5.24;100.00;96656.09;4977465;28;20038;-40
2023/12/14 06:02:15;;;;;;;1.98;1.48;;;6.00;99.90;;;5.27;100.00;96660.38;4973809;28;20050;-41
2023/12/14 06:04:41;;;;;;;2.20;1.40;;;6.00;99.90;;;5.30;100.00;96662.91;4971266;28;20042;-40
2023/12/14 06:07:07;;;;;;;2.05;1.35;;;6.00;99.90;;;5.29;100.00;96671.63;4978246;28;20357;-39
2023/12/14 06:09:35;;;;;;;1.75;1.40;;;6.00;99.90;;;5.30;100.00;96673.38;4975614;28;20029;-42
2023/12/14 06:12:04;;;;;;;3.90;1.52;;;6.00;99.90;;;5.28;100.00;96670.78;4969299;28;20034;-40
2023/12/14 06:14:30;;;;;;;3.13;1.58;;;6.00;99.90;;;5.23;100.00;96663.97;4983602;28;20041;-42
2023/12/14 06:16:57;;;;;;;3.35;1.67;;;6.00;99.90;;;5.28;100.00;96676.00;4962959;28;20038;-40
2023/12/14 06:19:23;;;;;;;3.70;1.92;;;6.10;99.90;;;5.29;100.00;96687.31;4964381;28;20045;-42
2023/12/14 06:21:49;;;;;;;3.42;2.10;;;6.00;99.90;;;5.30;100.00;96689.03;4975804;28;20027;-42
2023/12/14 06:24:15;;;;;;;4.50;2.50;;;6.00;99.90;;;5.27;100.00;96692.59;4978442;28;20034;-41
2023/12/14 06:26:44;;;;;;;2.53;1.85;;;6.00;99.90;;;5.28;100.00;96707.38;4972297;28;20046;-40
2023/12/14 06:29:12;;;;;;;3.17;1.80;;;6.00;99.90;;;5.27;100.00;96710.03;4967634;28;20034;-42
2023/12/14 06:31:38;;;;;;;4.78;2.10;;;6.00;99.90;;;5.27;100.00;96704.81;4973447;28;20029;-42
2023/12/14 06:34:05;;;;;;;4.07;1.77;;;6.00;99.90;;;5.28;100.00;96707.38;4970103;28;20046;-39
2023/12/14 06:36:31;;;;;;;4.63;2.00;;;6.00;99.90;;;5.28;100.00;96710.00;4970196;28;20032;-40
2023/12/14 06:38:58;;;;;;;3.22;2.10;;;6.00;99.90;;;5.29;100.00;96716.06;4979608;28;20641;-40
2023/12/14 06:41:25;;;;;;;4.63;2.13;;;6.00;99.90;;;5.29;100.00;96719.56;4974524;28;20060;-40
2023/12/14 06:43:52;;;;;;;2.53;1.92;;;6.00;99.90;;;5.28;100.00;96723.06;4981486;28;20043;-39
2023/12/14 06:46:18;;;;;;;2.67;1.63;;;6.00;99.90;;;5.33;100.00;96739.50;4972138;28;20034;-41
2023/12/14 06:48:44;;;;;;;4.53;1.95;;;6.10;99.90;;;5.36;100.00;96741.16;4978524;28;20030;-41
2023/12/14 06:51:10;;;;;;;2.88;2.05;;;6.10;99.90;;;5.26;100.00;96721.41;4977451;28;20041;-40
2023/12/14 06:53:38;;;;;;;3.88;2.70;;;6.10;99.90;;;5.44;100.00;96746.22;4983317;28;20026;-41
2023/12/14 06:56:04;;;;;;;3.80;2.08;;;6.20;99.90;;;5.25;100.00;96717.91;4980764;28;20034;-41
2023/12/14 06:58:31;;;;;;;3.00;2.30;;;6.20;99.90;;;5.49;100.00;96757.38;4974087;28;20471;-42
2023/12/14 07:00:57;;;;;;;4.85;2.47;;;6.20;99.90;;;5.51;100.00;96771.28;4982972;28;20522;-40
2023/12/14 07:03:22;;;;;;;3.22;2.65;;;6.30;99.90;;;5.49;100.00;96775.69;4978285;28;20026;-41
2023/12/14 07:05:48;;;;;;;4.22;2.60;;;6.20;99.90;;;5.56;100.00;96779.84;4981557;28;20042;-40
2023/12/14 07:08:14;;;;;;;4.28;2.63;;;6.30;99.90;;;5.55;100.00;96786.00;4981787;28;20034;-40
2023/12/14 07:10:42;;;;;;;6.28;2.90;;;6.30;99.90;;;5.59;100.00;96800.69;4981840;28;20561;-39
2023/12/14 07:13:08;;;;;;;3.45;2.72;;;6.30;99.90;;;5.63;100.00;96804.09;4982259;28;20413;-40
2023/12/14 07:15:34;;;;;;;5.20;3.35;;;6.30;99.90;;;5.68;100.00;96810.06;4983400;28;20577;-39
2023/12/14 07:17:59;;;;;;;3.35;2.70;;;6.30;99.90;;;5.70;100.00;96818.72;4983679;28;20052;-43
2023/12/14 07:20:25;;;;;;;5.10;3.00;;;6.40;99.90;;;5.73;100.00;96822.13;4980690;28;20054;-40
2023/12/14 07:22:51;;;;;;;3.67;2.67;;;6.40;99.90;;;5.76;100.00;96825.53;4983829;28;20027;-40
2023/12/14 07:25:16;;;;;;;4.18;2.95;;;6.40;99.90;;;5.76;100.00;96829.03;4979796;28;20498;-40
2023/12/14 07:27:43;;;;;;;3.70;2.83;;;6.50;99.90;;;5.75;100.00;96827.31;4982605;28;20041;-40
2023/12/14 07:30:10;;;;;;;4.20;2.78;;;6.50;99.90;;;5.77;100.00;96833.34;4981166;28;20038;-40
2023/12/14 07:32:35;;;;;;;3.65;2.83;;;6.50;99.90;;;5.78;100.00;96832.47;4984995;28;20534;-40
2023/12/14 07:35:01;;;;;;;4.45;3.15;;;6.50;99.90;;;5.77;100.00;96840.34;4987471;28;20026;-40
2023/12/14 07:37:26;;;;;;;3.63;2.50;;;6.50;99.90;;;5.77;100.00;96845.59;4979405;28;20034;-40
2023/12/14 07:39:52;;;;;;;5.82;2.92;;;6.40;99.90;;;5.77;100.00;96851.69;4979416;28;20044;-39
2023/12/14 07:42:21;;;;;;;5.65;3.05;;;6.50;99.90;;;5.78;100.00;96855.13;4981819;28;20030;-38
2023/12/14 07:44:46;;;;;;;3.83;2.83;;;6.50;99.90;;;5.78;100.00;96856.03;4988863;28;20468;-38
2023/12/14 07:47:12;;;;;;;4.10;2.83;;;6.50;99.90;;;5.70;100.00;96835.28;4980616;28;20030;-40
2023/12/14 07:49:38;;;;;;;5.22;3.03;;;6.50;99.90;;;5.78;100.00;96852.53;4987929;28;20037;-39
2023/12/14 07:52:04;;;;;;;4.32;3.08;;;6.50;99.90;;;5.84;100.00;96862.84;4982019;28;20041;-39
2023/12/14 07:54:30;;;;;;;4.70;2.90;;;6.50;99.90;;;5.86;100.00;96861.88;4979180;28;20045;-40
2023/12/14 07:56:55;;;;;;;4.50;2.83;;;6.50;99.90;;;5.92;100.00;96866.97;4983465;28;20034;-41
2023/12/14 07:59:21;;;;;;;4.13;3.10;;;6.60;99.90;;;5.98;100.00;96865.13;4965525;28;20403;-39
2023/12/14 08:01:47;;;;;;;5.85;3.83;;;6.60;99.90;;;5.99;100.00;96869.44;4963170;28;20066;-39
2023/12/14 08:04:14;;;;;;;5.10;3.80;;;6.70;99.90;;;6.02;100.00;96875.47;4984956;28;20033;-39
2023/12/14 08:06:40;;;;;;;5.45;3.63;;;6.70;99.90;;;6.04;100.00;96883.28;4985113;28;20038;-39
2023/12/14 08:09:06;;;;;;;5.72;3.67;;;6.70;99.90;;;6.01;100.00;96875.50;4981974;28;20134;-39
2023/12/14 08:11:32;;;;;;;6.13;4.47;;;6.70;99.90;;;5.99;100.00;96896.47;4977818;28;20418;-41
2023/12/14 08:13:58;;;;;;;6.10;3.83;;;6.70;99.90;;;5.97;100.00;96898.28;4982585;28;20053;-39
2023/12/14 08:16:24;;;;;;;6.55;4.28;;;6.70;99.90;;;5.93;100.00;96902.69;4986249;28;20470;-41
2023/12/14 08:18:50;;;;;;;5.93;4.32;;;6.60;99.90;;;5.89;100.00;96903.69;4989105;28;20445;-39
2023/12/14 08:21:17;;;;;;;5.70;4.22;;;6.60;99.90;;;5.89;100.00;96921.16;4983569;28;20030;-38
2023/12/14 08:23:46;;;;;;;6.15;4.25;;;6.60;99.90;;;5.81;100.00;96920.47;4987347;28;20107;-38
2023/12/14 08:26:12;;;;;;;5.63;3.95;;;6.50;99.90;;;5.70;100.00;96928.59;4980756;28;20038;-39
2023/12/14 08:28:39;;;;;;;6.38;4.97;;;6.40;99.90;;;5.69;100.00;96938.22;4981972;28;20038;-40
2023/12/14 08:31:05;;;;;;;7.28;5.03;;;6.40;99.90;;;5.75;100.00;96945.06;4975316;28;20030;-40
2023/12/14 08:33:31;;;;;;;7.03;4.88;;;6.40;99.90;;;5.73;100.00;96946.84;4986364;28;20573;-39
2023/12/14 08:35:57;;;;;;;6.28;4.50;;;6.40;99.90;;;5.63;100.00;96940.97;4989200;28;20034;-39
2023/12/14 08:38:23;;;;;;;5.85;4.80;;;6.30;99.90;;;5.48;100.00;96943.97;4984222;28;20025;-40
2023/12/14 08:40:50;;;;;;;6.53;4.85;;;6.20;99.90;;;5.47;100.00;96948.34;4982501;28;20065;-39
2023/12/14 08:43:16;;;;;;;6.57;4.75;;;6.20;99.90;;;5.38;100.00;96953.78;4987590;28;20113;-39
2023/12/14 08:45:42;;;;;;;6.60;4.70;;;6.10;99.90;;;5.54;100.00;96964.75;4983675;28;20045;-39
2023/12/14 08:48:08;;;;;;;7.80;5.78;;;6.20;99.90;;;5.69;100.00;96955.69;4986996;28;20030;-40
2023/12/14 08:50:34;;;;;;;7.85;5.10;;;6.40;99.90;;;5.98;100.00;96972.44;4984323;28;20054;-39
2023/12/14 08:52:59;;;;;;;8.80;5.78;;;6.60;99.90;;;6.13;100.00;96985.13;4983137;28;20835;-39
2023/12/14 08:55:26;;;;;;;9.05;6.47;;;6.80;99.90;;;6.22;100.00;96995.34;4981532;28;20056;-39
2023/12/14 08:57:52;;;;;;;8.20;5.95;;;6.90;99.90;;;6.25;100.00;96984.81;4985989;28;20062;-39
2023/12/14 09:00:18;;;;;;;7.97;5.20;;;7.00;99.90;;;6.49;100.00;97011.25;4986554;28;20049;-39
2023/12/14 09:02:45;;;;;;;7.45;5.55;;;7.20;99.90;;;6.62;100.00;97010.03;4984497;28;20042;-39
2023/12/14 09:05:15;;;;;;;8.15;5.50;;;7.30;99.90;;;6.59;100.00;96999.63;4987611;28;20029;-39
2023/12/14 09:07:41;;;;;;;8.75;5.30;;;7.40;99.90;;;6.74;100.00;97019.28;4985880;28;20117;-40
2023/12/14 09:10:08;;;;;;;6.28;4.40;;;7.40;99.90;;;6.78;100.00;97013.06;4978553;28;20029;-39
2023/12/14 09:12:34;;;;;;;5.90;4.53;;;7.50;99.90;;;6.82;100.00;97016.44;4985403;28;20034;-40
2023/12/14 09:15:00;;;;;;;7.68;5.10;;;7.50;99.90;;;6.93;100.00;97029.25;4986779;28;20490;-40
2023/12/14 09:17:32;;;;;;;9.52;5.07;;;7.60;99.90;;;7.00;100.00;97018.56;4987024;28;20581;-41
2023/12/14 09:20:01;;;;;;;6.13;4.55;;;7.60;99.90;;;7.07;100.00;97027.97;4981915;28;20534;-42
2023/12/14 09:22:27;;;;;;;8.23;5.20;;;7.70;99.90;;;7.08;100.00;97032.31;4980893;28;20070;-38
2023/12/14 09:24:53;;;;;;;6.50;4.78;;;7.80;99.90;;;7.10;100.00;97036.66;4979225;28;20042;-40
2023/12/14 09:27:18;;;;;;;8.30;4.95;;;7.80;99.90;;;7.10;100.00;97042.75;4980420;28;20078;-39
2023/12/14 09:29:44;;;;;;;6.60;4.90;;;7.80;99.90;;;7.10;100.00;97045.38;4982114;28;20465;-41
2023/12/14 09:32:10;;;;;;;6.55;5.50;;;7.70;99.90;;;7.00;100.00;97062.25;4984194;28;20061;-41
2023/12/14 09:34:36;;;;;;;7.47;5.32;;;7.70;99.90;;;6.87;100.00;97057.38;4985342;28;20022;-39
2023/12/14 09:37:01;;;;;;;8.70;5.60;;;7.60;99.90;;;6.87;100.00;97067.88;4980863;28;20034;-39
2023/12/14 09:39:30;;;;;;;6.95;5.30;;;7.50;99.90;;;6.82;100.00;97074.13;4982540;28;20356;-39
2023/12/14 09:42:07;;;;;;;8.00;5.55;;;7.40;99.90;;;6.71;100.00;97076.16;4984144;28;20034;-40
2023/12/14 09:44:33;;;;;;;7.18;5.07;;;7.40;99.90;;;6.62;100.00;97070.28;4987866;28;20034;-40
2023/12/14 09:47:00;;;;;;;7.32;5.00;;;7.30;99.90;;;6.48;100.00;97065.41;4984639;28;20348;-39
2023/12/14 09:49:32;;;;;;;8.07;5.03;;;7.30;99.90;;;6.51;100.00;97061.84;4982536;28;20045;-39
2023/12/14 09:51:59;;;;;;;10.02;5.32;;;7.30;99.90;;;6.58;100.00;97081.72;4983112;28;20438;-39
2023/12/14 09:54:28;;;;;;;7.20;5.30;;;7.30;99.90;;;6.62;100.00;97086.00;4981016;28;20435;-40
2023/12/14 09:56:54;;;;;;;7.43;5.25;;;7.30;99.90;;;6.69;100.00;97090.19;4988035;28;20026;-38
2023/12/14 09:59:21;;;;;;;11.30;6.40;;;7.40;99.90;;;6.76;100.00;97090.00;4984186;28;20034;-42
2023/12/14 10:01:47;;;;;;;14.55;7.40;;;7.50;99.90;;;6.80;100.00;97086.41;4981590;28;20026;-39
2023/12/14 10:04:15;;;;;;;14.88;7.35;;;7.50;99.90;;;6.87;100.00;97080.09;4999283;28;20038;-40
2023/12/14 10:06:43;;;;;;;12.32;8.50;;;7.60;99.90;;;7.02;100.00;97095.41;4984386;28;20550;-39
2023/12/14 10:09:18;;;;;;;11.18;7.95;;;7.70;99.90;;;7.13;100.00;97089.88;4995118;28;20027;-40
2023/12/14 10:11:44;;;;;;;11.85;8.18;;;7.80;99.90;;;7.18;100.00;97082.75;4978620;28;20057;-39
2023/12/14 10:14:24;;;;;;;12.57;7.95;;;7.90;99.90;;;7.36;100.00;97093.63;4987274;28;20034;-39
2023/12/14 10:16:50;;;;;;;12.05;7.68;;;8.10;99.90;;;7.44;100.00;97094.22;4998624;28;20122;-39
2023/12/14 10:19:19;;;;;;;12.02;8.60;;;8.10;99.90;;;7.47;100.00;97103.78;4983904;28;20526;-39
2023/12/14 10:21:50;;;;;;;11.00;7.47;;;8.20;99.90;;;7.55;100.00;97112.28;4979370;28;20031;-39